Архив погоды в Кашире

Метеограмма Кашира
Среда, 25 Апреля
Время местн. Темп Ветер Видим Явления Облачность нижн/средн/верх Атм. давл. Влжн Точка росы ВНГО R Сост. почвы Tg s
Напр Скр Прв ур.ст ур.м изм
12:00 +12.3° Ю-З 3 - 10 км - облачно 736 755 -0.5 53% +3.1° 1 км - - - -
09:00 +7.5° Ю 3 - 10 км небо без изменений {ливневые осадки} преимущественно облачно 737 756 -0.5 72% +2.7° 600 м 0.6 Влажная (без луж) +5° -
06:00 +5.7° Ю-В 2 - 10 км ливневый дождь облачно 737 757 -0.4 73% +1.3° 600 м - - - -
03:00 +6.5° Ю 1 - 10 км - облачно 737 757 -0.7 59% -0.9° 1 км - - - -
00:00 +6.6° Ю,Ю-З 1 - 10 км - облачно 738 758 -0.6 45% -4.4° 1 км - - - -
Вторник, 24 Апреля
Время местн. Темп Ветер Видим Явления Облачность нижн/средн/верх Атм. давл. Влжн Точка росы ВНГО R Сост. почвы Tg s
Напр Скр Прв ур.ст ур.м изм
21:00 +9° З,Ю-З 1 - 10 км - преимущественно облачно 739 758 +0.1 33% -6.5° 600 м 0 - - -
18:00 +11.2° З 2 - 10 км - преимущественно облачно 739 758 -1.1 23% -8.9° 1 км - - - -
15:00 +10.9° З 3 - 20 км - преимущественно облачно 740 759 -1.1 22% -10.2° более 2.5 км - - - -
12:00 +9° З 2 - 20 км - преимущественно облачно 741 761 -0.6 24% -10.7° более 2.5 км - - - -
09:00 +6° З 1 - 20 км - ясно 741 761 +0.1 35% -8.1° более 2.5 км 0 Влажная (без луж) - -
06:00 -1.1° З 1 - 10 км - ясно 741 762 +0.4 64% -7° более 2.5 км - - - -
03:00 -0.4° З 1 - 10 км - ясно 741 761 +0.3 51% -9.2° более 2.5 км - - - -
00:00 +0.9° З 1 - 10 км - ясно 741 761 +0.2 47% -9.2° более 2.5 км - - - -
Понедельник, 23 Апреля
Время местн. Темп Ветер Видим Явления Облачность нижн/средн/верх Атм. давл. Влжн Точка росы ВНГО R Сост. почвы Tg s
Напр Скр Прв ур.ст ур.м изм
21:00 +4.3° С,С-З 2 - 10 км - ясно 741 761 +1 34% -10° более 2.5 км 0 - - -
18:00 +7.2° С,С-З 5 - 20 км - ясно 740 759 +0.2 26% -11.1° более 2.5 км - - - -
15:00 +7.1° С-З 5 10 20 км - ясно 739 759 -0.2 26% -11° более 2.5 км - - - -
12:00 +4.9° С,С-З 6 12 20 км - переменная облачность 740 760 +0.3 32% -10.4° 1 км - - - -
09:00 +2.7° С 4 - 20 км - ясно 739 760 +1.1 42% -9° более 2.5 км 0 Влажная (без луж) - -
06:00 -1° С,С-З 3 - 10 км - ясно 738 759 +0.9 70% -5.8° более 2.5 км - - - -
03:00 -0.5° С-З 3 - 10 км - переменная облачность 737 758 +0.6 77% -4° 1 км - - - -
00:00 +0.5° С 2 10 10 км - преимущественно облачно 737 757 +1.3 74% -3.6° 600 м - - - -
Воскресенье, 22 Апреля
Время местн. Темп Ветер Видим Явления Облачность нижн/средн/верх Атм. давл. Влжн Точка росы ВНГО R Сост. почвы Tg s
Напр Скр Прв ур.ст ур.м изм
21:00 +1.6° С,С-З 4 - 10 км - облачно с прояснениями 735 756 +1.8 69% -3.4° 600 м 0 - - -
18:00 +2.4° С 4 - 10 км - преимущественно облачно 734 754 +2 63% -4° 600 м - - - -
15:00 +3.8° С 5 10 20 км - преимущественно облачно 732 752 +1.9 62% -2.8° 600 м - - - -
12:00 +4.8° С-З 7 12 20 км - облачно с прояснениями 730 750 +1.5 58% -2.8° 600 м - - - -
09:00 +4° С,С-З 6 11 10 км небо без изменений {ливневые осадки} преимущественно облачно 728 748 +1.4 67% -1.6° 600 м 0.3 Влажная (без луж) - -